• Join FlightAware (Why Join?)
  • Login
  • US Flag 
02:16PM EDT


 

Airport Tracker/Info


-or-


 

Live Flight TrackerFlight Track Log ✈ N622QS ✈ 14-Feb-2014 ✈ KLAS - KRIL

Flight Track Log - Related Links

Times and Time Zones

All times are in EST time to prevent confusion due to time zone crossing. See the N622QS flight status page for this flight to view local times or setup timezone preferences in your user account.

Time Position Orientation Groundspeed Altitude Reporting Facility
EST Latitude Longitude Course Direction KTS MPH feet Rate Location/Type
06:28PM 36.0756 -115.1658 271° West 182 209 3,200  Level Los Angeles Center
06:29PM 36.0764 -115.2400 271° West 217 250 6,400 3,120 Climbing Los Angeles Center
06:29PM 36.0953 -115.2767 303° West 248 285 8,100 3,000 Climbing Los Angeles Center
06:30PM 36.1286 -115.2706 North 264 304 9,500 2,700 Climbing Los Angeles Center
06:30PM 36.1389 -115.2269 74° East 268 308 10,900 3,000 Climbing Los Angeles Center
06:31PM 36.1303 -115.1794 103° East 279 321 12,600 3,060 Climbing Los Angeles Center
06:31PM 36.1239 -115.1317 99° East 278 320 14,100 2,640 Climbing Los Angeles Center
06:32PM 36.1267 -115.0822 86° East 299 344 15,300 2,400 Climbing Los Angeles Center
06:32PM 36.1314 -115.0211 85° East 301 346 16,600 1,620 Climbing Los Angeles Center
06:33PM 36.1411 -114.9064 84° East 340 391 18,000 1,320 Climbing Los Angeles Center
06:35PM 36.1500 -114.7756 85° East 372 428 19,400 1,380 Climbing Los Angeles Center
06:36PM 36.1658 -114.6381 82° East 396 456 20,900 1,380 Climbing Los Angeles Center
06:37PM 36.2119 -114.5036 67° East 418 481 22,300 1,500 Climbing Los Angeles Center
06:38PM 36.2633 -114.3408 69° East 424 488 24,100 1,560 Climbing Los Angeles Center
06:39PM 36.3061 -114.2025 69° East 429 494 25,600 1,380 Climbing Los Angeles Center
06:40PM 36.3500 -114.0631 69° East 432 497 27,000 1,380 Climbing Los Angeles Center
06:41PM 36.3933 -113.9228 69° East 436 502 28,500 1,380 Climbing Los Angeles Center
06:42PM 36.4386 -113.7789 69° East 443 510 29,900 1,380 Climbing Los Angeles Center
06:43PM 36.4822 -113.6342 69° East 447 514 31,400 1,440 Climbing Los Angeles Center
06:44PM 36.5303 -113.4775 69° East 449 517 33,000 1,440 Climbing Los Angeles Center
06:45PM 36.5744 -113.3328 69° East 450 518 34,400 1,380 Climbing Los Angeles Center
06:46PM 36.6175 -113.1908 69° East 444 511 35,900 1,440 Climbing Los Angeles Center
06:47PM 36.6686 -113.0214 69° East 439 505 37,400 1,200 Climbing Los Angeles Center
06:48PM 36.7111 -112.8789 70° East 441 507 38,400 960 Climbing Los Angeles Center
06:49PM 36.7553 -112.7356 69° East 445 512 39,400 960 Climbing Los Angeles Center
06:50PM 36.7975 -112.5925 70° East 443 510 40,500 720 Climbing Los Angeles Center
06:51PM 36.8478 -112.4217 70° East 441 507 41,000 240 Climbing Los Angeles Center
06:52PM 36.8906 -112.2736 70° East 452 520 41,000  Level Los Angeles Center
06:53PM 36.9336 -112.1258 70° East 454 522 41,000  Level Los Angeles Center
06:54PM 36.9767 -111.9758 70° East 459 528 41,000  Level Los Angeles Center
06:55PM 37.0283 -111.7983 70° East 454 522 41,000  Level Los Angeles Center
06:56PM 37.0847 -111.6214 68° East 457 526 41,000  Level Los Angeles Center
06:58PM 37.1508 -111.4875 58° Northeast 456 525 41,000  Level Denver Center
06:59PM 37.2169 -111.3547 58° Northeast 453 521 41,000  Level Denver Center
07:00PM 37.2961 -111.1942 58° Northeast 453 521 41,000  Level Denver Center
07:01PM 37.3617 -111.0594 58° Northeast 453 521 41,000  Level Denver Center
07:02PM 37.4278 -110.9261 58° Northeast 452 520 41,000  Level Denver Center
07:03PM 37.4925 -110.7931 58° Northeast 448 516 41,000  Level Denver Center
07:04PM 37.5572 -110.6600 58° Northeast 449 517 41,000  Level Denver Center
07:05PM 37.6328 -110.5025 59° Northeast 449 517 41,000  Level Denver Center
07:06PM 37.6958 -110.3717 59° Northeast 453 521 41,000  Level Denver Center
07:07PM 37.7694 -110.2200 58° Northeast 454 522 41,000  Level Denver Center
07:08PM 37.8319 -110.0886 59° Northeast 454 522 41,000  Level Denver Center
07:09PM 37.9053 -109.9328 59° Northeast 461 531 41,000  Level Denver Center
07:10PM 37.9686 -109.7994 59° Northeast 460 529 41,000  Level Denver Center
07:11PM 38.0533 -109.6197 59° Northeast 461 531 41,000  Level Denver Center
07:12PM 38.1169 -109.4828 59° Northeast 467 537 41,000  Level Denver Center
07:13PM 38.1914 -109.3242 59° Northeast 469 540 41,000  Level Denver Center
07:14PM 38.2536 -109.1886 60° Northeast 466 536 41,000 -600 Level Denver Center
07:15PM 38.3283 -109.0264 60° Northeast 473 544 39,800 -1,200 Descending Denver Center
07:16PM 38.3917 -108.8894 59° Northeast 469 540 38,600 -1,260 Descending Denver Center
07:17PM 38.4631 -108.7328 60° Northeast 458 527 37,300 -1,260 Descending Denver Center
07:18PM 38.5239 -108.6017 59° Northeast 450 518 36,100 -1,320 Descending Denver Center
07:20PM 38.5931 -108.4483 60° Northeast 449 517 34,600 -1,500 Descending Denver Center
07:21PM 38.6533 -108.3153 60° Northeast 453 521 33,000 -1,680 Descending Denver Center
07:22PM 38.7256 -108.1569 60° Northeast 462 532 31,200 -1,800 Descending Denver Center
07:23PM 38.7864 -108.0203 60° Northeast 462 532 29,300 -2,040 Descending Denver Center
07:24PM 38.8578 -107.8581 60° Northeast 467 537 27,100 -2,160 Descending Denver Center
07:25PM 38.9203 -107.7203 60° Northeast 469 540 24,800 -2,400 Descending Denver Center
07:26PM 38.9781 -107.5883 61° Northeast 453 521 22,200 -2,340 Descending Denver Center
07:27PM 39.0414 -107.4461 60° Northeast 422 486 20,000 -1,020 Descending Denver Center
07:28PM 39.0822 -107.3531 60° Northeast 339 390 20,000  Level Denver Center
07:29PM 39.1503 -107.2475 50° Northeast 305 351 20,000  Level Denver Center
07:30PM 39.2086 -107.1772 43° Northeast 295 339 20,000  Level Denver Center
07:31PM 39.2672 -107.1056 43° Northeast 290 334 20,000 -540 Level Denver Center
07:32PM 39.3314 -107.0906 10° North 245 282 18,900 -1,620 Descending Denver Center
07:33PM 39.4094 -107.1058 351° North 232 267 16,700 -2,220 Descending Denver Center
07:34PM 39.4431 -107.0217 63° Northeast 311 358 14,400 -1,560 Descending Denver Center
07:35PM 39.4008 -106.9483 127° Southeast 250 288 13,500 -240 Descending Denver Center
07:36PM 39.3511 -106.9494 181° South 219 252 14,000 1,020 Climbing Denver Center
07:37PM 39.3547 -107.0186 274° West 193 222 15,700 900 Climbing Denver Center
07:38PM 39.3589 -107.0725 276° West 186 214 15,900 120 Climbing Denver Center
07:39PM 39.3639 -107.1636 274° West 205 236 16,000  Climbing Denver Center
07:40PM 39.3700 -107.2447 276° West 205 236 16,000  Level Denver Center
07:41PM 39.4081 -107.3078 308° West 208 239 16,000  Level Denver Center
07:42PM 39.4494 -107.3675 312° West 228 262 16,000 -60 Level Denver Center
07:44PM 39.5003 -107.4344 315° West 233 268 15,900 -840 Descending Denver Center
07:45PM 39.5444 -107.4928 314° West 236 272 14,300 -960 Descending Denver Center
07:46PM 39.6253 -107.4994 356° North 257 296 14,000 -180 Descending Denver Center
07:47PM 39.6964 -107.4922 North 277 319 14,000  Level Denver Center
07:48PM 39.7056 -107.4011 83° East 265 305 14,000 -60 Level Denver Center
07:49PM 39.6706 -107.3278 122° Southeast 251 289 13,900 -600 Descending Denver Center
07:50PM 39.6067 -107.2975 160° South 222 255 12,800 -960 Descending Denver Center
07:51PM 39.5653 -107.3142 197° South 180 207 12,000 -780 Descending Denver Center